Time;durP1;ratioP1;P1;durP2;ratioP2;P2;SDS_P1;SDS_P2;PMS_P1;PMS_P2;Temp;Humidity;BMP_temperature;BMP_pressure;BME280_temperature;BME280_humidity;BME280_pressure;Samples;Min_cycle;Max_cycle;Signal;HPM_P1;HPM_P2
2023/08/22 00:00:28;;;;;;;7.85;2.70;;;;;;;19.63;69.21;102159.66;7391594;19;20018;-60
2023/08/22 00:02:56;;;;;;;6.90;3.10;;;;;;;19.60;69.74;102166.09;7391427;19;20018;-60
2023/08/22 00:05:24;;;;;;;7.88;2.92;;;;;;;19.56;69.88;102166.53;7390072;19;20039;-59
2023/08/22 00:07:52;;;;;;;7.45;2.65;;;;;;;19.54;69.68;102166.66;7392782;19;20039;-60
2023/08/22 00:10:20;;;;;;;7.32;2.60;;;;;;;19.53;69.79;102161.41;7391843;19;20029;-60
2023/08/22 00:12:48;;;;;;;8.02;2.83;;;;;;;19.48;69.75;102161.81;7391916;19;20472;-58
2023/08/22 00:15:15;;;;;;;7.90;2.78;;;;;;;19.41;69.36;102153.47;7392076;19;20010;-59
2023/08/22 00:17:43;;;;;;;5.20;2.40;;;;;;;19.43;68.83;102145.28;7391907;19;20298;-58
2023/08/22 00:20:12;;;;;;;7.50;2.50;;;;;;;19.46;68.91;102136.94;7390810;19;20067;-59
2023/08/22 00:22:40;;;;;;;6.70;2.90;;;;;;;19.48;69.38;102141.19;7390842;19;20516;-60
2023/08/22 00:25:09;;;;;;;8.80;2.90;;;;;;;19.52;69.33;102148.97;7391089;19;20014;-59
2023/08/22 00:27:37;;;;;;;8.75;3.20;;;;;;;19.46;69.81;102151.22;7391443;19;20042;-59
2023/08/22 00:30:07;;;;;;;6.45;2.80;;;;;;;19.45;69.96;102148.66;7391144;19;20019;-59
2023/08/22 00:32:34;;;;;;;7.47;2.70;;;;;;;19.41;69.81;102147.22;7391891;19;20014;-59
2023/08/22 00:35:02;;;;;;;7.07;2.60;;;;;;;19.38;70.01;102137.59;7391869;19;20014;-59
2023/08/22 00:37:30;;;;;;;6.45;2.78;;;;;;;19.36;69.82;102128.84;7391585;19;20010;-60
2023/08/22 00:39:57;;;;;;;7.50;2.78;;;;;;;19.34;70.20;102128.13;7390669;19;20048;-60
2023/08/22 00:42:24;;;;;;;7.00;2.50;;;;;;;19.32;70.12;102126.56;7391468;19;20022;-60
2023/08/22 00:47:27;;;;;;;5.38;2.50;;;;;;;19.41;69.98;102136.50;7336401;19;20384;-60
2023/08/22 00:49:55;;;;;;;7.88;2.58;;;;;;;19.33;70.22;102136.31;7369959;19;20039;-60
2023/08/22 00:52:22;;;;;;;5.65;2.60;;;;;;;19.32;70.16;102142.69;7390405;19;20011;-60
2023/08/22 00:54:49;;;;;;;7.38;2.35;;;;;;;19.40;69.47;102137.47;7390344;19;20015;-61
2023/08/22 00:57:17;;;;;;;6.07;2.50;;;;;;;19.35;69.30;102120.94;7386781;19;20019;-61
2023/08/22 00:59:45;;;;;;;7.13;2.53;;;;;;;19.35;69.84;102129.00;7381735;19;20686;-60
2023/08/22 01:02:14;;;;;;;5.05;2.50;;;;;;;19.33;69.79;102137.16;7380303;19;20015;-61
2023/08/22 01:04:42;;;;;;;5.55;2.30;;;;;;;19.38;69.91;102120.63;7380386;19;20010;-61
2023/08/22 01:07:19;;;;;;;5.93;2.35;;;;;;;19.51;69.52;102123.09;7379207;19;20018;-61
2023/08/22 01:09:54;;;;;;;5.15;2.35;;;;;;;19.47;69.50;102122.53;7384592;19;20483;-61
2023/08/22 01:12:43;;;;;;;3.78;1.90;;;;;;;19.47;69.35;102119.84;7389235;19;20023;-60
2023/08/22 01:15:24;;;;;;;6.47;2.53;;;;;;;19.49;69.57;102101.72;7390913;19;20015;-59
2023/08/22 01:17:56;;;;;;;4.88;2.00;;;;;;;19.43;69.30;102094.22;7392482;19;20018;-60
2023/08/22 01:20:25;;;;;;;6.55;2.20;;;;;;;19.42;69.58;102079.94;7399457;19;20018;-60
2023/08/22 01:22:54;;;;;;;4.75;2.40;;;;;;;19.45;69.64;102057.31;7397403;19;20024;-60
2023/08/22 01:25:22;;;;;;;7.40;2.53;;;;;;;19.45;69.70;102055.47;7395730;19;20472;-60
2023/08/22 01:28:05;;;;;;;6.40;2.35;;;;;;;19.55;69.71;102050.13;7393385;19;20026;-60
2023/08/22 01:30:45;;;;;;;7.65;2.42;;;;;;;19.49;69.98;102061.41;7397371;19;20026;-62
2023/08/22 01:33:46;;;;;;;4.20;2.28;;;;;;;19.55;69.30;102055.50;7396444;19;20021;-60
2023/08/22 01:36:16;;;;;;;6.28;2.58;;;;;;;19.38;70.46;102061.53;7394436;19;20037;-60
2023/08/22 01:38:43;;;;;;;4.20;2.03;;;;;;;19.46;70.03;102056.34;7397182;19;20018;-60
2023/08/22 01:41:11;;;;;;;4.78;2.03;;;;;;;19.43;69.95;102056.63;7396932;19;20011;-60
2023/08/22 01:43:38;;;;;;;4.95;2.22;;;;;;;19.48;69.67;102052.50;7396321;19;20015;-61
2023/08/22 01:46:07;;;;;;;4.88;2.30;;;;;;;19.27;70.26;102049.09;7394051;19;20052;-60
2023/08/22 01:48:35;;;;;;;6.13;2.25;;;;;;;19.38;69.80;102057.00;7398155;19;20022;-60
2023/08/22 01:51:03;;;;;;;5.93;2.45;;;;;;;19.44;68.74;102053.78;7395567;19;20018;-60
2023/08/22 01:53:30;;;;;;;6.82;2.13;;;;;;;19.38;68.24;102066.91;7395202;19;20010;-61
2023/08/22 01:55:59;;;;;;;6.63;2.50;;;;;;;19.37;68.12;102051.78;7399291;19;20019;-61
2023/08/22 01:58:27;;;;;;;7.93;2.45;;;;;;;19.40;68.39;102060.41;7394780;19;20032;-61
2023/08/22 02:00:55;;;;;;;4.88;2.22;;;;;;;19.31;69.15;102047.81;7395921;19;20028;-61
2023/08/22 02:03:23;;;;;;;7.45;2.17;;;;;;;19.43;67.96;102025.22;7394999;19;20402;-60
2023/08/22 02:05:51;;;;;;;4.50;1.90;;;;;;;19.29;67.62;102028.28;7387737;19;20022;-62
2023/08/22 02:08:18;;;;;;;5.05;2.03;;;;;;;19.29;67.40;102043.56;7392992;19;20432;-61
2023/08/22 02:10:46;;;;;;;6.47;2.20;;;;;;;19.43;67.50;102051.25;7396856;19;20039;-62
2023/08/22 02:13:13;;;;;;;5.93;2.20;;;;;;;19.44;67.83;102063.69;7396158;19;20043;-61
2023/08/22 02:15:41;;;;;;;5.32;1.90;;;;;;;19.38;68.98;102053.47;7395388;19;20017;-62
2023/08/22 02:18:08;;;;;;;5.13;2.35;;;;;;;19.45;68.88;102057.31;7396018;19;20022;-62
2023/08/22 02:20:36;;;;;;;5.90;2.10;;;;;;;19.47;67.98;102063.41;7394779;19;20015;-67
2023/08/22 02:23:03;;;;;;;5.47;2.17;;;;;;;19.48;67.30;102068.63;7398421;19;20041;-67
2023/08/22 02:28:18;;;;;;;6.95;2.05;;;;;;;19.34;68.15;102057.44;7301350;19;20006;-66
2023/08/22 02:30:45;;;;;;;7.80;2.40;;;;;;;19.34;68.30;102069.00;7396786;19;20025;-68
2023/08/22 02:33:13;;;;;;;4.00;1.90;;;;;;;19.36;68.65;102071.59;7399603;19;20163;-68
2023/08/22 02:35:40;;;;;;;5.07;2.25;;;;;;;19.43;68.21;102065.53;7394333;19;20023;-68
2023/08/22 02:38:08;;;;;;;4.40;2.28;;;;;;;19.52;66.83;102055.75;7396771;19;20014;-68
2023/08/22 02:40:34;;;;;;;5.05;2.22;;;;;;;19.48;66.21;102051.66;7395807;19;20016;-67
2023/08/22 02:43:02;;;;;;;5.35;1.67;;;;;;;19.45;66.68;102054.63;7392863;19;20673;-67
2023/08/22 02:45:30;;;;;;;5.60;1.80;;;;;;;19.36;67.02;102061.69;7396457;19;20141;-67
2023/08/22 02:47:57;;;;;;;3.38;1.67;;;;;;;19.35;68.16;102068.06;7394827;19;20015;-67
2023/08/22 02:50:25;;;;;;;4.78;2.28;;;;;;;19.38;67.71;102058.84;7392957;19;20551;-67
2023/08/22 02:52:52;;;;;;;7.38;2.20;;;;;;;19.47;67.00;102061.56;7393296;19;20018;-68
2023/08/22 02:55:20;;;;;;;6.32;1.80;;;;;;;19.41;67.09;102054.03;7392890;19;20497;-68
2023/08/22 02:57:47;;;;;;;5.22;2.15;;;;;;;19.23;67.69;102059.25;7395298;19;20030;-68
2023/08/22 03:00:15;;;;;;;5.07;1.85;;;;;;;19.39;67.45;102069.47;7394211;19;20057;-68
2023/08/22 03:02:42;;;;;;;4.40;2.00;;;;;;;19.40;68.07;102073.00;7394981;19;20014;-68
2023/08/22 03:05:13;;;;;;;5.90;2.00;;;;;;;19.35;68.25;102068.06;7389834;19;20018;-68
2023/08/22 03:07:41;;;;;;;6.13;2.00;;;;;;;19.41;67.92;102061.25;7392497;19;20100;-68
2023/08/22 03:10:09;;;;;;;4.18;2.05;;;;;;;19.34;68.00;102042.16;7395115;19;20015;-68
2023/08/22 03:12:36;;;;;;;5.38;1.95;;;;;;;19.41;68.12;102047.81;7394542;19;20045;-68
2023/08/22 03:15:04;;;;;;;4.38;2.08;;;;;;;19.39;67.82;102050.66;7396168;19;20088;-68
2023/08/22 03:17:32;;;;;;;4.85;1.92;;;;;;;19.39;68.44;102061.41;7393280;19;20370;-68
2023/08/22 03:19:59;;;;;;;7.82;2.30;;;;;;;19.37;68.19;102065.22;7394061;19;20070;-68
2023/08/22 03:22:27;;;;;;;4.65;1.77;;;;;;;19.34;68.61;102057.44;7394269;19;20011;-68
2023/08/22 03:24:55;;;;;;;5.38;2.10;;;;;;;19.36;68.78;102056.31;7392539;19;20026;-68
2023/08/22 03:27:22;;;;;;;4.28;1.95;;;;;;;19.33;68.68;102053.91;7393890;19;20354;-67
2023/08/22 03:29:49;;;;;;;5.57;2.30;;;;;;;19.31;68.58;102046.94;7393981;19;20023;-68
2023/08/22 03:32:17;;;;;;;5.55;2.17;;;;;;;19.27;68.42;102050.91;7393970;19;20018;-68
2023/08/22 03:34:44;;;;;;;4.18;1.90;;;;;;;19.24;68.79;102052.91;7393393;19;20026;-68
2023/08/22 03:37:12;;;;;;;7.38;2.20;;;;;;;19.28;69.23;102050.78;7393783;19;20516;-68
2023/08/22 03:39:39;;;;;;;5.15;2.22;;;;;;;19.28;69.37;102034.66;7389680;19;20091;-68
2023/08/22 03:42:06;;;;;;;6.75;2.45;;;;;;;19.27;69.45;102029.41;7391583;19;20485;-68
2023/08/22 03:44:34;;;;;;;4.93;2.13;;;;;;;19.28;69.51;102028.44;7393336;19;20007;-68
2023/08/22 03:47:02;;;;;;;8.80;2.35;;;;;;;19.26;69.43;102033.09;7390517;19;20029;-68
2023/08/22 03:49:29;;;;;;;4.88;2.33;;;;;;;19.19;69.41;102039.03;7393761;19;20031;-68
2023/08/22 03:51:57;;;;;;;3.80;1.80;;;;;;;19.13;69.83;102042.25;7390582;19;20383;-68
2023/08/22 03:54:28;;;;;;;5.20;1.77;;;;;;;19.15;69.28;102050.16;7391927;19;20018;-68
2023/08/22 03:56:56;;;;;;;5.90;2.00;;;;;;;19.20;69.28;102050.63;7392080;19;20019;-68
2023/08/22 03:59:23;;;;;;;7.05;2.22;;;;;;;19.11;69.98;102046.91;7390347;19;20039;-68
2023/08/22 04:01:50;;;;;;;5.30;2.45;;;;;;;19.17;70.18;102037.47;7391247;19;20018;-68
2023/08/22 04:04:18;;;;;;;6.03;2.25;;;;;;;19.14;70.74;102040.41;7390314;19;20434;-67
2023/08/22 04:06:45;;;;;;;5.50;1.98;;;;;;;19.22;70.56;102038.75;7388292;19;20022;-69
2023/08/22 04:09:13;;;;;;;4.75;1.92;;;;;;;19.23;70.60;102037.78;7391013;19;20014;-69
2023/08/22 04:11:42;;;;;;;7.22;2.42;;;;;;;19.26;70.05;102035.78;7393210;19;20018;-69
2023/08/22 04:14:09;;;;;;;5.68;2.08;;;;;;;19.24;70.25;102036.78;7393008;19;20089;-69
2023/08/22 04:16:37;;;;;;;7.70;2.40;;;;;;;19.22;70.23;102036.06;7393177;19;20413;-68
2023/08/22 04:19:04;;;;;;;5.03;2.30;;;;;;;19.18;70.52;102031.09;7391364;19;20022;-68
2023/08/22 04:21:32;;;;;;;5.70;1.95;;;;;;;19.15;70.86;102024.16;7393717;19;20109;-68
2023/08/22 04:23:59;;;;;;;4.25;1.95;;;;;;;19.20;70.61;102013.03;7394358;19;20014;-68
2023/08/22 04:26:27;;;;;;;7.10;2.40;;;;;;;19.23;70.72;102018.97;7392323;19;20022;-68
2023/08/22 04:28:55;;;;;;;5.82;2.30;;;;;;;19.24;70.25;102019.81;7390168;19;20039;-68
2023/08/22 04:31:22;;;;;;;6.88;2.13;;;;;;;19.22;70.59;102035.22;7390823;19;20014;-68
2023/08/22 04:33:49;;;;;;;6.47;2.40;;;;;;;19.08;71.28;102031.09;7390864;19;20506;-68
2023/08/22 04:36:17;;;;;;;7.25;2.42;;;;;;;19.17;71.09;102032.94;7392971;19;20015;-68
2023/08/22 04:38:49;;;;;;;5.32;2.05;;;;;;;19.25;71.10;102026.88;7389054;19;20357;-68
2023/08/22 04:41:16;;;;;;;5.55;2.10;;;;;;;19.28;70.49;102020.38;7391769;19;20040;-68
2023/08/22 04:43:44;;;;;;;6.38;2.50;;;;;;;19.31;70.66;102020.09;7392079;19;20463;-68
2023/08/22 04:46:12;;;;;;;5.72;2.40;;;;;;;19.32;70.63;102008.38;7391802;19;20019;-68
2023/08/22 04:48:42;;;;;;;6.30;2.10;;;;;;;19.31;70.61;102009.34;7392555;19;20018;-69
2023/08/22 04:51:10;;;;;;;5.03;2.33;;;;;;;19.24;70.90;102015.28;7387961;19;20018;-68
2023/08/22 04:53:37;;;;;;;4.93;2.30;;;;;;;19.22;70.59;102011.88;7391363;19;20022;-68
2023/08/22 04:56:04;;;;;;;7.00;2.30;;;;;;;19.20;70.73;102023.78;7391459;19;20488;-68
2023/08/22 04:58:32;;;;;;;4.50;2.10;;;;;;;19.20;71.50;102021.94;7389830;19;20027;-68
2023/08/22 05:00:59;;;;;;;5.68;2.10;;;;;;;19.21;71.49;102020.94;7391337;19;20021;-68
2023/08/22 05:03:27;;;;;;;6.22;2.42;;;;;;;19.17;71.74;102011.44;7391113;19;20018;-68
2023/08/22 05:05:54;;;;;;;6.13;2.27;;;;;;;19.17;71.69;102021.34;7246845;19;2795847;-68
2023/08/22 05:08:22;;;;;;;7.28;2.47;;;;;;;19.20;71.47;102031.81;7389517;19;20444;-68
2023/08/22 05:10:49;;;;;;;7.03;2.30;;;;;;;19.24;71.62;102034.09;7391463;19;20490;-69
2023/08/22 05:13:16;;;;;;;7.15;2.13;;;;;;;19.30;71.36;102034.50;7391672;19;20043;-69
2023/08/22 05:15:44;;;;;;;6.75;2.25;;;;;;;19.31;71.22;102042.47;7391120;19;20011;-69
2023/08/22 05:18:11;;;;;;;7.20;2.50;;;;;;;19.34;71.18;102046.69;7389005;19;20023;-68
2023/08/22 05:20:40;;;;;;;6.00;2.50;;;;;;;19.38;71.23;102042.72;7391750;19;20019;-69
2023/08/22 05:23:07;;;;;;;4.80;2.53;;;;;;;19.41;70.99;102037.09;7391346;19;20540;-69
2023/08/22 05:25:35;;;;;;;7.63;2.50;;;;;;;19.38;70.96;102038.19;7391187;19;20025;-68
2023/08/22 05:28:02;;;;;;;7.20;2.60;;;;;;;19.46;70.87;102035.69;7390427;19;20033;-68
2023/08/22 05:30:30;;;;;;;6.50;2.90;;;;;;;19.54;70.90;102037.69;7392075;19;20472;-67
2023/08/22 05:32:57;;;;;;;7.63;3.03;;;;;;;19.57;70.91;102031.16;7390741;19;20493;-67
2023/08/22 05:35:25;;;;;;;4.22;2.20;;;;;;;19.62;71.06;102029.78;7392402;19;20031;-67
2023/08/22 05:37:52;;;;;;;5.50;2.40;;;;;;;19.65;71.24;102034.00;7389396;19;20114;-68
2023/08/22 05:40:23;;;;;;;8.05;2.50;;;;;;;19.56;71.28;102027.63;7391060;19;20473;-68
2023/08/22 05:42:52;;;;;;;8.77;3.05;;;;;;;19.55;71.15;102023.25;7390627;19;20376;-68
2023/08/22 05:45:19;;;;;;;7.95;3.20;;;;;;;19.53;70.89;102014.47;7388638;19;20372;-68
2023/08/22 05:47:47;;;;;;;7.53;2.90;;;;;;;19.55;71.02;102023.25;7388333;19;20451;-68
2023/08/22 05:50:14;;;;;;;7.15;2.40;;;;;;;19.56;71.14;102024.94;7388476;19;20037;-68
2023/08/22 05:52:42;;;;;;;7.97;2.30;;;;;;;19.60;71.20;102018.28;7388752;19;20018;-68
2023/08/22 05:55:09;;;;;;;6.38;2.47;;;;;;;19.67;71.01;102019.47;7390462;19;20047;-68
2023/08/22 05:57:36;;;;;;;6.13;2.97;;;;;;;19.69;71.36;102012.13;7389355;19;20019;-68
2023/08/22 06:00:05;;;;;;;7.00;2.42;;;;;;;19.75;71.17;102017.91;7389790;19;20018;-68
2023/08/22 06:02:32;;;;;;;7.40;2.28;;;;;;;19.78;71.46;102020.31;7392601;19;20014;-68
2023/08/22 06:05:00;;;;;;;6.78;2.40;;;;;;;19.77;70.92;102024.00;7397622;19;20018;-68
2023/08/22 06:07:28;;;;;;;8.43;2.40;;;;;;;19.77;70.92;102022.16;7393039;19;20017;-68
2023/08/22 06:09:55;;;;;;;5.60;2.30;;;;;;;19.80;70.64;102015.63;7396992;19;20022;-68
2023/08/22 06:12:23;;;;;;;7.25;2.70;;;;;;;19.80;70.60;102021.00;7397643;19;20421;-68
2023/08/22 06:14:50;;;;;;;8.70;3.40;;;;;;;19.80;70.91;102015.63;7396057;19;20447;-68
2023/08/22 06:17:17;;;;;;;11.50;3.55;;;;;;;19.80;70.98;102007.56;7396807;19;20018;-68
2023/08/22 06:19:52;;;;;;;12.43;4.03;;;;;;;19.74;70.61;102013.53;7395508;19;20043;-68
2023/08/22 06:22:19;;;;;;;8.95;2.97;;;;;;;19.72;70.78;102014.50;7396129;19;20014;-68
2023/08/22 06:24:46;;;;;;;8.57;2.97;;;;;;;19.76;70.48;102008.84;7397043;19;20042;-68
2023/08/22 06:27:14;;;;;;;9.35;3.38;;;;;;;19.70;70.87;101997.69;7395159;19;20014;-68
2023/08/22 06:29:41;;;;;;;7.43;2.90;;;;;;;19.67;69.87;102000.63;7394555;19;20491;-68
2023/08/22 06:32:09;;;;;;;8.63;3.05;;;;;;;19.85;67.72;102008.00;7395592;19;20361;-68
2023/08/22 06:34:36;;;;;;;9.35;3.50;;;;;;;19.92;67.16;102012.66;7395601;19;20018;-68
2023/08/22 06:37:06;;;;;;;12.07;3.08;;;;;;;19.95;67.36;102009.66;7397178;19;20018;-68
2023/08/22 06:39:33;;;;;;;6.40;2.70;;;;;;;20.02;67.00;102018.00;7393245;19;20407;-68
2023/08/22 06:42:00;;;;;;;9.02;3.35;;;;;;;20.09;65.82;102019.13;7394948;19;20014;-68
2023/08/22 06:44:28;;;;;;;10.73;3.40;;;;;;;20.17;65.48;102015.72;7396710;19;20508;-68
2023/08/22 06:46:56;;;;;;;9.80;3.38;;;;;;;20.26;64.70;102020.25;7393507;19;20027;-67
2023/08/22 06:49:23;;;;;;;13.35;4.03;;;;;;;20.25;64.36;102021.22;7397154;19;20018;-68
2023/08/22 06:51:50;;;;;;;9.82;4.07;;;;;;;20.26;64.21;102014.88;7396269;19;20024;-70
2023/08/22 06:54:21;;;;;;;10.82;4.03;;;;;;;20.30;64.24;102020.78;7396337;19;20018;-69
2023/08/22 06:56:48;;;;;;;13.82;4.38;;;;;;;20.34;64.00;102020.38;7396504;19;20022;-65
2023/08/22 06:59:16;;;;;;;10.02;3.60;;;;;;;20.45;64.28;102019.31;7392349;19;20039;-68
2023/08/22 07:01:43;;;;;;;10.43;4.05;;;;;;;20.51;63.84;102012.56;7395641;19;20015;-71
2023/08/22 07:04:11;;;;;;;13.52;3.70;;;;;;;20.56;63.52;102024.56;7394218;19;20019;-66
2023/08/22 07:06:43;;;;;;;11.38;3.95;;;;;;;20.58;63.71;102009.13;7394116;19;20026;-66
2023/08/22 07:09:11;;;;;;;8.65;3.45;;;;;;;20.70;63.03;102012.47;7391226;19;20039;-64
2023/08/22 07:11:38;;;;;;;13.30;4.35;;;;;;;20.77;63.06;102013.56;7394374;19;20026;-65
2023/08/22 07:14:06;;;;;;;12.10;3.80;;;;;;;20.81;63.04;102016.81;7393711;19;20023;-66
2023/08/22 07:16:33;;;;;;;13.57;3.95;;;;;;;20.85;63.28;102007.44;7395992;19;20379;-68
2023/08/22 07:19:01;;;;;;;10.57;4.03;;;;;;;20.91;63.29;102010.41;7391524;19;20018;-71
2023/08/22 07:21:29;;;;;;;7.70;3.35;;;;;;;20.93;62.97;102005.69;7397674;19;20014;-66
2023/08/22 07:23:56;;;;;;;9.02;3.63;;;;;;;20.93;63.09;102008.38;7395468;19;20018;-68
2023/08/22 07:26:26;;;;;;;8.77;3.42;;;;;;;20.94;63.27;102006.53;7397288;19;20014;-69
2023/08/22 07:28:53;;;;;;;9.27;3.30;;;;;;;20.97;63.73;102008.09;7394140;19;20534;-68
2023/08/22 07:31:21;;;;;;;10.07;3.78;;;;;;;20.99;63.60;101998.88;7395296;19;20010;-67
2023/08/22 07:33:48;;;;;;;9.07;3.53;;;;;;;;;;7397568;19;20381;-66
2023/08/22 07:36:20;;;;;;;9.57;3.70;;;;;;;21.06;63.40;102004.47;7396337;19;20567;-66
2023/08/22 07:38:47;;;;;;;10.18;3.72;;;;;;;21.08;63.18;102011.41;7393842;19;20019;-67
2023/08/22 07:41:16;;;;;;;6.75;3.30;;;;;;;21.16;63.14;102019.59;7395644;19;20085;-72
2023/08/22 07:43:43;;;;;;;10.70;4.15;;;;;;;21.21;63.46;102023.69;7395804;19;20431;-66
2023/08/22 07:46:11;;;;;;;9.13;3.38;;;;;;;21.23;64.11;102021.69;7395583;19;20011;-66
2023/08/22 07:48:39;;;;;;;10.93;4.15;;;;;;;21.23;64.09;102017.16;7393002;19;20086;-65
2023/08/22 07:51:06;;;;;;;12.52;4.60;;;;;;;21.29;63.97;102018.38;7393591;19;20366;-69
2023/08/22 07:53:34;;;;;;;9.43;3.90;;;;;;;21.37;64.14;102021.22;7396142;19;20010;-69
2023/08/22 07:56:01;;;;;;;17.83;4.97;;;;;;;21.42;63.99;102017.03;7394528;19;20006;-69
2023/08/22 07:58:32;;;;;;;15.98;5.05;;;;;;;21.47;64.46;102019.28;7394718;19;20007;-68
2023/08/22 08:00:59;;;;;;;16.25;4.70;;;;;;;21.55;64.27;102018.50;7395802;19;20018;-68
2023/08/22 08:03:27;;;;;;;15.95;4.72;;;;;;;21.62;64.38;102022.28;7396758;19;20394;-69
2023/08/22 08:05:55;;;;;;;17.02;4.30;;;;;;;21.69;63.88;102022.53;7394525;19;20014;-68
2023/08/22 08:08:22;;;;;;;13.63;4.07;;;;;;;21.74;63.59;102029.13;7394985;19;20039;-68
2023/08/22 08:10:50;;;;;;;13.90;4.65;;;;;;;21.75;64.34;102027.28;7395085;19;20022;-68
2023/08/22 08:13:17;;;;;;;18.42;5.30;;;;;;;21.78;63.77;102025.13;7394776;19;20019;-68
2023/08/22 08:15:44;;;;;;;19.20;5.80;;;;;;;21.85;63.56;102028.03;7392329;19;20047;-67
2023/08/22 08:18:14;;;;;;;17.63;5.78;;;;;;;21.92;63.45;102023.72;7391380;19;20485;-67
2023/08/22 08:20:43;;;;;;;15.00;5.45;;;;;;;21.93;63.32;102022.72;7393024;19;20019;-67
2023/08/22 08:23:11;;;;;;;15.55;6.18;;;;;;;21.97;63.58;102025.94;7393374;19;20011;-66
2023/08/22 08:25:38;;;;;;;13.57;5.15;;;;;;;22.06;63.25;102028.56;7390817;19;20027;-70
2023/08/22 08:28:05;;;;;;;24.10;5.28;;;;;;;22.14;63.47;102025.97;7389684;19;20034;-69
2023/08/22 08:30:34;;;;;;;16.98;5.70;;;;;;;22.19;63.20;102024.63;7392350;19;20022;-68
2023/08/22 08:33:03;;;;;;;21.90;6.00;;;;;;;22.24;63.84;102033.94;7392495;19;20767;-68
2023/08/22 08:35:31;;;;;;;15.82;5.13;;;;;;;22.25;63.73;102037.50;7392430;19;20014;-68
2023/08/22 08:37:59;;;;;;;16.60;5.60;;;;;;;22.30;63.80;102040.56;7390729;19;20483;-67
2023/08/22 08:40:34;;;;;;;18.25;5.47;;;;;;;22.34;63.18;102033.84;7390542;19;20014;-68
2023/08/22 08:43:04;;;;;;;18.13;5.65;;;;;;;22.37;63.47;102039.78;7392510;19;20492;-68
2023/08/22 08:45:34;;;;;;;15.13;4.95;;;;;;;22.39;63.12;102037.75;7390659;19;20027;-68
2023/08/22 08:48:03;;;;;;;13.98;5.72;;;;;;;22.42;63.25;102035.75;7391931;19;20018;-68
2023/08/22 08:50:31;;;;;;;15.02;4.80;;;;;;;22.43;62.70;102029.34;7391582;19;20402;-68
2023/08/22 08:52:59;;;;;;;11.80;5.65;;;;;;;22.47;62.11;102034.25;7392346;19;20018;-67
2023/08/22 08:55:26;;;;;;;12.63;4.50;;;;;;;22.55;61.81;102031.63;7391691;19;20551;-68
2023/08/22 08:57:56;;;;;;;13.77;4.32;;;;;;;22.67;60.83;102032.19;7391126;19;20011;-69
2023/08/22 09:00:23;;;;;;;13.63;4.85;;;;;;;22.68;60.39;102019.53;7392443;19;20411;-68
2023/08/22 09:02:50;;;;;;;12.93;4.28;;;;;;;22.77;60.14;102026.66;7390996;19;20019;-68
2023/08/22 09:05:20;;;;;;;11.50;3.83;;;;;;;22.91;59.17;102026.06;7392611;19;20025;-68
2023/08/22 09:07:47;;;;;;;10.68;4.32;;;;;;;23.00;58.27;102030.47;7391959;19;20018;-68
2023/08/22 09:10:34;;;;;;;12.20;3.40;;;;;;;23.14;58.06;102025.47;7391272;19;20007;-68
2023/08/22 09:13:03;;;;;;;9.55;3.40;;;;;;;23.13;57.14;102029.19;7394152;19;20100;-68
2023/08/22 09:15:32;;;;;;;7.07;2.30;;;;;;;23.20;56.13;102030.19;7400140;19;20022;-71
2023/08/22 09:18:00;;;;;;;8.20;3.30;;;;;;;23.24;55.69;102027.03;7402435;19;20018;-71
2023/08/22 09:20:27;;;;;;;7.75;2.95;;;;;;;23.23;55.78;102036.13;7397831;19;20381;-71
2023/08/22 09:22:55;;;;;;;10.50;3.60;;;;;;;23.25;55.45;102035.97;7391903;19;20018;-71
2023/08/22 09:25:22;;;;;;;8.98;3.72;;;;;;;23.26;54.90;102038.50;7392634;19;20396;-71
2023/08/22 09:27:50;;;;;;;11.80;3.78;;;;;;;23.24;55.08;102032.44;7390938;19;20041;-71
2023/08/22 09:30:22;;;;;;;8.05;3.45;;;;;;;23.27;54.51;102029.38;7390646;19;20495;-71
2023/08/22 09:32:59;;;;;;;8.35;2.88;;;;;;;23.40;54.33;102037.03;7391036;19;20018;-71
2023/08/22 09:35:32;;;;;;;7.70;2.78;;;;;;;23.51;54.25;102034.00;7401819;19;20021;-70
2023/08/22 09:38:07;;;;;;;11.38;2.60;;;;;;;23.60;54.31;102032.16;7410131;19;20027;-70
2023/08/22 09:40:35;;;;;;;9.10;2.70;;;;;;;23.53;54.08;102040.09;7412995;19;20018;-70
2023/08/22 09:43:03;;;;;;;8.55;2.35;;;;;;;23.54;54.09;102036.38;7414765;19;20014;-69
2023/08/22 09:45:31;;;;;;;9.70;2.97;;;;;;;23.53;54.03;102036.53;7416583;19;20018;-70
2023/08/22 09:48:01;;;;;;;7.13;2.65;;;;;;;23.52;53.11;102032.16;7415206;19;20015;-70
2023/08/22 09:50:36;;;;;;;13.20;2.90;;;;;;;23.49;53.21;102033.31;7415742;19;20033;-70
2023/08/22 09:53:04;;;;;;;7.32;1.90;;;;;;;23.38;53.10;102035.50;7415993;19;20021;-69
2023/08/22 09:55:33;;;;;;;6.63;2.50;;;;;;;23.29;53.61;102038.19;7417296;19;20011;-69
2023/08/22 09:58:01;;;;;;;5.95;2.10;;;;;;;23.24;53.63;102037.84;7408075;19;20025;-69
2023/08/22 10:00:30;;;;;;;6.43;2.25;;;;;;;23.18;54.35;102038.50;7397706;19;20020;-68
2023/08/22 10:03:01;;;;;;;7.50;2.33;;;;;;;23.13;53.99;102040.84;7399903;19;20047;-68
2023/08/22 10:05:32;;;;;;;6.97;2.00;;;;;;;23.08;54.33;102032.38;7401435;19;20518;-69
2023/08/22 10:07:59;;;;;;;9.13;2.53;;;;;;;23.13;54.67;102029.19;7408305;19;20027;-69
2023/08/22 10:10:28;;;;;;;8.15;2.40;;;;;;;23.21;54.11;102031.91;7422284;19;20011;-69
2023/08/22 10:12:56;;;;;;;7.28;2.10;;;;;;;23.24;54.25;102040.56;7420717;19;20015;-70
2023/08/22 10:15:24;;;;;;;6.40;1.95;;;;;;;23.29;53.47;102037.34;7399003;19;20044;-70
2023/08/22 10:17:52;;;;;;;3.28;1.23;;;;;;;23.30;51.08;102030.91;7395762;19;20047;-70
2023/08/22 10:20:19;;;;;;;6.15;1.40;;;;;;;23.29;50.47;102038.19;7397186;19;20015;-70
2023/08/22 10:22:46;;;;;;;4.93;1.42;;;;;;;23.29;50.70;102040.88;7397076;19;20026;-69
2023/08/22 10:25:14;;;;;;;7.50;1.63;;;;;;;23.32;50.49;102031.63;7396753;19;20019;-69
2023/08/22 10:27:46;;;;;;;5.88;1.73;;;;;;;23.40;50.88;102033.50;7394424;19;20355;-69
2023/08/22 10:30:18;;;;;;;6.00;1.50;;;;;;;23.43;50.90;102047.53;7396898;19;20021;-69
2023/08/22 10:33:05;;;;;;;7.85;1.80;;;;;;;23.49;49.02;102040.59;7395090;19;20022;-69
2023/08/22 10:36:02;;;;;;;7.38;1.63;;;;;;;23.56;48.92;102037.06;7395417;19;20049;-69
2023/08/22 10:38:47;;;;;;;4.57;1.33;;;;;;;23.65;48.96;102031.66;7394820;19;20022;-69
2023/08/22 10:41:14;;;;;;;4.72;1.20;;;;;;;23.62;48.31;102027.44;7396339;19;20385;-70
2023/08/22 10:43:42;;;;;;;3.55;1.00;;;;;;;23.70;46.85;102027.47;7394818;19;20378;-70
2023/08/22 10:46:10;;;;;;;3.08;0.80;;;;;;;23.80;46.61;102024.59;7396612;19;20036;-70
2023/08/22 10:48:37;;;;;;;3.53;1.20;;;;;;;23.85;46.50;102043.88;7394174;19;20044;-68
2023/08/22 10:51:07;;;;;;;5.03;1.50;;;;;;;23.79;46.84;102037.28;7395890;19;20054;-68
2023/08/22 10:53:45;;;;;;;4.45;1.52;;;;;;;23.76;46.82;102031.34;7394709;19;20023;-68
2023/08/22 10:56:23;;;;;;;5.03;1.42;;;;;;;23.77;47.37;102033.91;7394986;19;20018;-68
2023/08/22 10:58:59;;;;;;;4.60;1.10;;;;;;;23.70;47.37;102023.94;7393792;19;20015;-68
2023/08/22 11:01:27;;;;;;;7.57;1.20;;;;;;;23.73;47.52;102018.16;7395924;19;20018;-68
2023/08/22 11:03:56;;;;;;;6.13;1.20;;;;;;;23.83;47.40;102021.56;7396048;19;20023;-68
2023/08/22 11:06:24;;;;;;;2.40;1.00;;;;;;;23.80;47.37;102016.47;7395846;19;20026;-68
2023/08/22 11:08:51;;;;;;;4.18;1.23;;;;;;;23.82;47.83;102019.88;7393343;19;20039;-68
2023/08/22 11:11:22;;;;;;;3.42;0.90;;;;;;;23.93;47.96;102032.22;7394116;19;20029;-68
2023/08/22 11:13:49;;;;;;;4.80;1.42;;;;;;;24.05;47.97;102030.84;7396092;19;20046;-68
2023/08/22 11:16:18;;;;;;;4.68;1.35;;;;;;;24.29;47.17;102024.53;7395008;19;20036;-68
2023/08/22 11:18:47;;;;;;;5.60;1.00;;;;;;;24.37;46.31;102031.81;7393257;19;20021;-70
2023/08/22 11:21:15;;;;;;;4.47;1.00;;;;;;;24.11;46.55;102024.72;7394052;19;20368;-70
2023/08/22 11:23:43;;;;;;;3.30;0.93;;;;;;;23.95;46.17;102028.31;7395467;19;20094;-67
2023/08/22 11:26:12;;;;;;;4.30;1.00;;;;;;;23.91;46.85;102029.66;7395190;19;20040;-67
2023/08/22 11:28:40;;;;;;;7.03;1.25;;;;;;;23.91;46.37;102026.94;7391786;19;20019;-71
2023/08/22 11:31:14;;;;;;;5.07;0.80;;;;;;;23.93;45.49;102033.06;7393298;19;20022;-71
2023/08/22 11:33:50;;;;;;;;;;;;;;;23.78;45.28;102034.75;7395696;19;20082;-71
2023/08/22 11:36:20;;;;;;;4.95;1.20;;;;;;;23.85;46.25;102041.19;7394112;19;19996;-67